Time;durP1;ratioP1;P1;durP2;ratioP2;P2;SDS_P1;SDS_P2;PMS_P1;PMS_P2;Temp;Humidity;BMP_temperature;BMP_pressure;BME280_temperature;BME280_humidity;BME280_pressure;Samples;Min_cycle;Max_cycle;Signal;HPM_P1;HPM_P2
2023/08/09 00:03:51;;;;;;;7.65;4.03;;;;;;;;;;10012799;29;20054;-89
2023/08/09 00:08:52;;;;;;;4.60;2.88;;;;;;;;;;10010286;29;20048;-88
2023/08/09 00:13:53;;;;;;;5.32;3.00;;;;;;;;;;10012098;29;20049;-89
2023/08/09 00:18:55;;;;;;;3.85;3.05;;;;;;;;;;9990312;29;20069;-89
2023/08/09 00:23:56;;;;;;;4.65;2.90;;;;;;;;;;9996854;29;20476;-89
2023/08/09 00:28:57;;;;;;;3.67;2.78;;;;;;;;;;10010195;29;20681;-90
2023/08/09 00:33:58;;;;;;;4.78;2.95;;;;;;;;;;10012065;29;20042;-89
2023/08/09 00:38:59;;;;;;;5.13;3.17;;;;;;;;;;9996810;29;20543;-87
2023/08/09 00:44:01;;;;;;;4.10;2.92;;;;;;;;;;10005658;29;20053;-87
2023/08/09 00:49:02;;;;;;;5.82;3.60;;;;;;;;;;10009831;29;20566;-88
2023/08/09 00:54:03;;;;;;;8.98;5.15;;;;;;;;;;10008628;29;20042;-87
2023/08/09 00:59:04;;;;;;;7.45;5.00;;;;;;;;;;10008885;29;20049;-88
2023/08/09 01:04:06;;;;;;;7.50;4.90;;;;;;;;;;10005157;29;20069;-87
2023/08/09 01:09:24;;;;;;;5.55;4.40;;;;;;;;;;10008616;29;20057;-87
2023/08/09 01:14:26;;;;;;;5.82;4.13;;;;;;;;;;10010047;29;20049;-87
2023/08/09 01:19:32;;;;;;;6.55;4.13;;;;;;;;;;10003640;29;20042;-87
2023/08/09 01:24:33;;;;;;;6.45;3.30;;;;;;;;;;10003403;29;20048;-87
2023/08/09 01:29:34;;;;;;;8.57;4.10;;;;;;;;;;9996434;29;20042;-87
2023/08/09 01:34:37;;;;;;;7.82;3.28;;;;;;;;;;10006468;29;20049;-86
2023/08/09 01:39:39;;;;;;;5.55;3.90;;;;;;;;;;10007642;29;20628;-87
2023/08/09 01:44:47;;;;;;;8.15;4.53;;;;;;;;;;10011368;29;20050;-88
2023/08/09 01:49:51;;;;;;;5.60;4.20;;;;;;;;;;9992542;29;20057;-87
2023/08/09 01:54:53;;;;;;;6.20;3.80;;;;;;;;;;10002299;29;20418;-87
2023/08/09 01:59:54;;;;;;;5.05;4.20;;;;;;;;;;10002956;29;20062;-86
2023/08/09 02:04:55;;;;;;;8.60;5.47;;;;;;;;;;10008933;29;20053;-87
2023/08/09 02:09:59;;;;;;;8.38;5.07;;;;;;;;;;9992393;29;20038;-87
2023/08/09 02:15:00;;;;;;;7.88;5.50;;;;;;;;;;9993931;29;20056;-87
2023/08/09 02:20:04;;;;;;;8.20;5.18;;;;;;;;;;9985764;29;20043;-87
2023/08/09 02:25:06;;;;;;;6.18;4.70;;;;;;;;;;10004740;29;20038;-87
2023/08/09 02:30:08;;;;;;;5.53;4.55;;;;;;;;;;10006256;29;20034;-86
2023/08/09 02:35:10;;;;;;;8.05;4.43;;;;;;;;;;10007566;29;20045;-86
2023/08/09 02:40:11;;;;;;;7.30;4.57;;;;;;;;;;10001406;29;20057;-89
2023/08/09 02:45:12;;;;;;;8.15;4.68;;;;;;;;;;9998726;29;20478;-88
2023/08/09 02:50:13;;;;;;;9.13;4.15;;;;;;;;;;10003464;29;20041;-89
2023/08/09 02:55:15;;;;;;;8.43;4.55;;;;;;;;;;10005884;29;20041;-87
2023/08/09 03:00:16;;;;;;;7.43;4.55;;;;;;;;;;9995777;29;20050;-88
2023/08/09 03:05:17;;;;;;;5.30;3.65;;;;;;;;;;9994730;29;20075;-89
2023/08/09 03:10:18;;;;;;;5.82;3.80;;;;;;;;;;9992364;29;20522;-88
2023/08/09 03:15:19;;;;;;;6.07;4.05;;;;;;;;;;10002485;29;20422;-89
2023/08/09 03:20:21;;;;;;;5.45;3.97;;;;;;;;;;10005908;29;20502;-88
2023/08/09 03:25:22;;;;;;;6.97;4.93;;;;;;;;;;10003578;29;20462;-88
2023/08/09 03:30:23;;;;;;;8.35;5.10;;;;;;;;;;10000096;29;20061;-88
2023/08/09 03:35:24;;;;;;;9.65;6.05;;;;;;;;;;9993815;29;20497;-87
2023/08/09 03:40:25;;;;;;;9.70;6.70;;;;;;;;;;9988792;29;20053;-89
2023/08/09 03:45:26;;;;;;;11.80;7.20;;;;;;;;;;9998204;29;20057;-89
2023/08/09 03:50:27;;;;;;;15.52;8.15;;;;;;;;;;10000478;29;20573;-88
2023/08/09 03:55:28;;;;;;;12.48;6.25;;;;;;;;;;9998353;29;20567;-88
2023/08/09 04:00:29;;;;;;;11.85;6.55;;;;;;;;;;10000008;29;20058;-89
2023/08/09 04:05:30;;;;;;;8.60;6.35;;;;;;;;;;10013282;29;20071;-88
2023/08/09 04:10:31;;;;;;;8.32;6.20;;;;;;;;;;10004575;29;20133;-88
2023/08/09 04:15:32;;;;;;;9.23;6.63;;;;;;;;;;10000980;29;20050;-89
2023/08/09 04:20:33;;;;;;;11.40;6.88;;;;;;;;;;9998220;29;20050;-87
2023/08/09 04:25:35;;;;;;;11.10;6.75;;;;;;;;;;10000351;29;20130;-88
2023/08/09 04:30:36;;;;;;;12.25;7.07;;;;;;;;;;10000120;29;20049;-87
2023/08/09 04:35:37;;;;;;;12.48;7.20;;;;;;;;;;10001864;29;20046;-87
2023/08/09 04:40:39;;;;;;;11.93;6.50;;;;;;;;;;10008562;29;20498;-88
2023/08/09 04:45:41;;;;;;;12.80;6.75;;;;;;;;;;9991720;29;20062;-87
2023/08/09 04:50:42;;;;;;;11.70;6.18;;;;;;;;;;9992251;29;20050;-86
2023/08/09 04:55:43;;;;;;;12.82;6.68;;;;;;;;;;10008623;29;20046;-85
2023/08/09 05:00:44;;;;;;;11.77;6.88;;;;;;;;;;10012707;29;20204;-86
2023/08/09 05:05:45;;;;;;;15.13;7.22;;;;;;;;;;9984395;29;20038;-85
2023/08/09 05:10:46;;;;;;;11.70;7.55;;;;;;;;;;9992446;29;20862;-86
2023/08/09 05:15:47;;;;;;;12.20;6.18;;;;;;;;;;9990135;29;20110;-85
2023/08/09 05:20:48;;;;;;;14.68;7.65;;;;;;;;;;10008092;29;20053;-86
2023/08/09 05:25:49;;;;;;;12.60;7.07;;;;;;;;;;9980139;29;20054;-84
2023/08/09 05:30:50;;;;;;;11.85;7.78;;;;;;;;;;10000356;29;20069;-84
2023/08/09 05:35:51;;;;;;;14.35;7.55;;;;;;;;;;9991394;29;20045;-85
2023/08/09 05:40:52;;;;;;;10.82;7.05;;;;;;;;;;9996443;29;20042;-83
2023/08/09 05:45:53;;;;;;;15.45;8.45;;;;;;;;;;9997103;29;20061;-85
2023/08/09 05:50:54;;;;;;;12.02;6.53;;;;;;;;;;9995345;29;20097;-86
2023/08/09 05:55:55;;;;;;;9.57;5.50;;;;;;;;;;9990435;29;20042;-87
2023/08/09 06:00:57;;;;;;;9.15;6.05;;;;;;;;;;9999508;29;21467;-87
2023/08/09 06:06:00;;;;;;;8.88;5.53;;;;;;;;;;9987574;29;20428;-86
2023/08/09 06:11:02;;;;;;;11.43;5.35;;;;;;;;;;9986386;29;20038;-87
2023/08/09 06:16:03;;;;;;;8.98;5.25;;;;;;;;;;9986915;29;20046;-86
2023/08/09 06:21:04;;;;;;;9.07;5.57;;;;;;;;;;9989204;29;20576;-86
2023/08/09 06:26:05;;;;;;;9.10;5.03;;;;;;;;;;9992152;29;20069;-87
2023/08/09 06:31:07;;;;;;;9.77;5.30;;;;;;;;;;9998997;29;20091;-87
2023/08/09 06:36:08;;;;;;;10.07;4.75;;;;;;;;;;9996581;29;20041;-87
2023/08/09 06:41:09;;;;;;;9.02;5.22;;;;;;;;;;10007425;29;20097;-86
2023/08/09 06:46:11;;;;;;;9.75;4.65;;;;;;;;;;10007317;29;20050;-87
2023/08/09 06:51:12;;;;;;;6.50;3.67;;;;;;;;;;10007087;29;20045;-88
2023/08/09 06:56:13;;;;;;;6.65;3.42;;;;;;;;;;9994120;29;20675;-87
2023/08/09 07:01:14;;;;;;;6.82;3.05;;;;;;;;;;9986492;29;20064;-89
2023/08/09 07:06:15;;;;;;;5.95;3.08;;;;;;;;;;10003473;29;20176;-88
2023/08/09 07:11:16;;;;;;;9.55;3.80;;;;;;;;;;9987323;29;20054;-87
2023/08/09 07:16:17;;;;;;;5.18;3.20;;;;;;;;;;9983501;29;20046;-87
2023/08/09 07:21:18;;;;;;;4.97;2.90;;;;;;;;;;9980407;29;20054;-85
2023/08/09 07:26:19;;;;;;;4.45;2.90;;;;;;;;;;9978549;29;20089;-88
2023/08/09 07:31:21;;;;;;;6.72;2.63;;;;;;;;;;9989809;29;20073;-87
2023/08/09 07:36:23;;;;;;;4.82;2.67;;;;;;;;;;9981769;29;20049;-85
2023/08/09 07:41:24;;;;;;;4.03;2.75;;;;;;;;;;10001537;29;20061;-87
2023/08/09 07:46:25;;;;;;;5.97;2.80;;;;;;;;;;10002990;29;20484;-86
2023/08/09 07:51:26;;;;;;;5.20;2.42;;;;;;;;;;10008462;29;20050;-84
2023/08/09 07:56:27;;;;;;;5.40;2.45;;;;;;;;;;10001912;29;20780;-84
2023/08/09 08:01:28;;;;;;;3.97;2.45;;;;;;;;;;10009770;29;20054;-83
2023/08/09 08:06:29;;;;;;;3.17;2.22;;;;;;;;;;10012287;29;20054;-84
2023/08/09 08:11:31;;;;;;;3.00;2.05;;;;;;;;;;10001398;29;20489;-84
2023/08/09 08:16:32;;;;;;;4.90;1.77;;;;;;;;;;10010626;29;20058;-84
2023/08/09 08:21:33;;;;;;;4.60;2.47;;;;;;;;;;10012059;29;20058;-83
2023/08/09 08:26:34;;;;;;;3.40;2.00;;;;;;;;;;10010354;29;20050;-84
2023/08/09 08:31:36;;;;;;;5.15;2.33;;;;;;;;;;9995519;29;20033;-84
2023/08/09 08:36:38;;;;;;;5.80;2.72;;;;;;;;;;10001407;29;20183;-84
2023/08/09 08:41:41;;;;;;;4.63;2.80;;;;;;;;;;10001275;29;20800;-83
2023/08/09 08:46:42;;;;;;;3.83;2.50;;;;;;;;;;10012069;29;20073;-86
2023/08/09 08:51:44;;;;;;;4.07;2.55;;;;;;;;;;9997717;29;20050;-83
2023/08/09 08:56:51;;;;;;;4.45;2.22;;;;;;;;;;9997204;29;20038;-83
2023/08/09 09:01:52;;;;;;;3.75;2.28;;;;;;;;;;9996077;29;20085;-84
2023/08/09 09:06:53;;;;;;;5.15;2.55;;;;;;;;;;10004672;29;20053;-85
2023/08/09 09:11:54;;;;;;;4.05;1.85;;;;;;;;;;10002141;29;20050;-85
2023/08/09 09:16:55;;;;;;;4.95;2.70;;;;;;;;;;9982850;29;20043;-85
2023/08/09 09:21:56;;;;;;;6.35;3.00;;;;;;;;;;10005441;29;20499;-85
2023/08/09 09:26:57;;;;;;;4.13;2.72;;;;;;;;;;10002030;29;20042;-84
2023/08/09 09:31:59;;;;;;;5.65;3.30;;;;;;;;;;9998048;29;20050;-88
2023/08/09 09:37:00;;;;;;;9.32;2.80;;;;;;;;;;9993667;29;20106;-86
2023/08/09 09:42:01;;;;;;;3.88;2.17;;;;;;;;;;9991786;29;20058;-87
2023/08/09 09:47:03;;;;;;;6.63;2.67;;;;;;;;;;9991181;29;20077;-86
2023/08/09 09:52:04;;;;;;;5.32;2.35;;;;;;;;;;10003333;29;20053;-88
2023/08/09 09:57:06;;;;;;;4.60;2.75;;;;;;;;;;9990578;29;20046;-87
2023/08/09 10:02:08;;;;;;;4.40;2.60;;;;;;;;;;9997574;29;20541;-86
2023/08/09 10:07:10;;;;;;;4.13;2.20;;;;;;;;;;9999509;29;20087;-88
2023/08/09 10:12:12;;;;;;;4.15;2.22;;;;;;;;;;10011653;29;20038;-87
2023/08/09 10:17:14;;;;;;;4.13;2.55;;;;;;;;;;10004207;29;20070;-91
2023/08/09 10:22:19;;;;;;;5.30;2.20;;;;;;;;;;10007766;29;20088;-88
2023/08/09 10:27:39;;;;;;;4.47;2.53;;;;;;;;;;9995540;29;20049;-85
2023/08/09 10:32:51;;;;;;;4.07;2.70;;;;;;;;;;9995197;29;20102;-85
2023/08/09 10:37:52;;;;;;;4.75;2.60;;;;;;;;;;9974016;29;20047;-87
2023/08/09 10:42:53;;;;;;;7.40;3.10;;;;;;;;;;9992258;29;20045;-88
2023/08/09 10:48:14;;;;;;;4.28;2.78;;;;;;;;;;9990024;29;20054;-90
2023/08/09 10:53:21;;;;;;;4.80;3.38;;;;;;;;;;10014116;24;20073;-86
2023/08/09 10:58:26;;;;;;;3.97;2.83;;;;;;;;;;10010144;29;20128;-87
2023/08/09 11:03:27;;;;;;;4.23;2.93;;;;;;;;;;10001164;29;20062;-90
2023/08/09 11:08:29;;;;;;;6.68;4.72;;;;;;;;;;10004211;29;20046;-87
2023/08/09 11:13:32;;;;;;;4.15;2.88;;;;;;;;;;9998918;29;20121;-85
2023/08/09 11:18:33;;;;;;;6.55;4.03;;;;;;;;;;10004905;29;20932;-86
2023/08/09 11:23:34;;;;;;;4.57;3.25;;;;;;;;;;10005710;29;20871;-85
2023/08/09 11:28:35;;;;;;;6.00;3.30;;;;;;;;;;10001872;29;20102;-88
2023/08/09 11:33:36;;;;;;;9.95;4.57;;;;;;;;;;9992187;29;20315;-83
2023/08/09 11:38:38;;;;;;;8.57;4.85;;;;;;;;;;9994365;29;20587;-83
2023/08/09 11:43:39;;;;;;;7.57;3.92;;;;;;;;;;9992172;29;20066;-87
2023/08/09 11:49:05;;;;;;;5.32;3.47;;;;;;;;;;10000371;29;20114;-85
2023/08/09 11:54:10;;;;;;;3.50;3.03;;;;;;;;;;9969867;29;20042;-89
2023/08/09 11:59:11;;;;;;;4.07;2.80;;;;;;;;;;9983489;29;20034;-86
2023/08/09 12:04:18;;;;;;;5.03;3.60;;;;;;;;;;9979057;29;20057;-86
2023/08/09 12:09:30;;;;;;;5.65;3.88;;;;;;;;;;9971285;29;20046;-84
2023/08/09 12:14:35;;;;;;;3.50;3.17;;;;;;;;;;9986728;29;20038;-87
2023/08/09 12:19:36;;;;;;;5.75;3.42;;;;;;;;;;10008566;29;20329;-86
2023/08/09 12:24:47;;;;;;;3.95;2.75;;;;;;;;;;10008826;24;20062;-86
2023/08/09 12:29:48;;;;;;;4.18;2.53;;;;;;;;;;9992074;29;20053;-86
2023/08/09 12:34:50;;;;;;;3.78;2.58;;;;;;;;;;9994275;29;20541;-86
2023/08/09 12:39:51;;;;;;;3.47;2.40;;;;;;;;;;10034563;24;20408;-87
2023/08/09 12:50:33;;;;;;;5.60;2.67;;;;;;;;;;10045919;29;20049;-88
2023/08/09 12:55:47;;;;;;;5.55;3.13;;;;;;;;;;10029040;29;20141;-89
2023/08/09 13:11:39;;;;;;;4.72;3.47;;;;;;;;;;10413826;24;20093;-89
2023/08/09 13:22:18;;;;;;;4.05;2.90;;;;;;;;;;10614703;24;20034;-89
2023/08/09 13:33:03;;;;;;;3.97;2.78;;;;;;;;;;10008774;29;20073;-90
2023/08/09 13:38:05;;;;;;;4.35;3.20;;;;;;;;;;9992315;29;20048;-88
2023/08/09 14:00:01;;;;;;;;;;;;;;;;;;;;;
2023/08/09 14:05:02;;;;;;;5.68;3.60;;;;;;;;;;10017718;29;20056;-89
2023/08/09 14:10:06;;;;;;;4.57;3.30;;;;;;;;;;10011720;29;20045;-89
2023/08/09 14:20:19;;;;;;;6.10;4.00;;;;;;;;;;10072778;24;20081;-89
2023/08/09 14:25:25;;;;;;;9.43;4.00;;;;;;;;;;10030666;29;20038;-90
2023/08/09 14:30:26;;;;;;;5.20;3.75;;;;;;;;;;10012175;29;20117;-88
2023/08/09 14:35:30;;;;;;;7.40;3.92;;;;;;;;;;10024607;29;20056;-90
2023/08/09 14:40:31;;;;;;;5.15;3.65;;;;;;;;;;10019210;29;20510;-89
2023/08/09 14:45:32;;;;;;;8.35;3.72;;;;;;;;;;10029110;29;20046;-90
2023/08/09 14:50:33;;;;;;;4.53;3.78;;;;;;;;;;10037027;29;20049;-90
2023/08/09 14:55:34;;;;;;;6.85;3.70;;;;;;;;;;10018384;29;20045;-88
2023/08/09 15:06:17;;;;;;;5.90;4.28;;;;;;;;;;10030705;29;20525;-90
2023/08/09 15:11:18;;;;;;;5.72;4.03;;;;;;;;;;10014440;29;20044;-89
2023/08/09 15:16:19;;;;;;;6.32;4.55;;;;;;;;;;10016129;29;20061;-90
2023/08/09 15:21:50;;;;;;;5.18;3.67;;;;;;;;;;10002685;29;20053;-86
2023/08/09 15:26:52;;;;;;;4.93;3.20;;;;;;;;;;10027364;29;20077;-90
2023/08/09 15:31:53;;;;;;;4.15;2.63;;;;;;;;;;10027513;29;20095;-89
2023/08/09 15:36:55;;;;;;;4.53;2.42;;;;;;;;;;10022397;29;20065;-87
2023/08/09 15:41:56;;;;;;;3.30;2.70;;;;;;;;;;10020621;29;20081;-88
2023/08/09 15:46:57;;;;;;;3.47;2.28;;;;;;;;;;10022612;29;20045;-88
2023/08/09 15:52:01;;;;;;;2.85;2.40;;;;;;;;;;10019422;29;20046;-89
2023/08/09 15:57:03;;;;;;;3.58;2.78;;;;;;;;;;10023347;29;20041;-87
2023/08/09 16:07:57;;;;;;;3.53;2.42;;;;;;;;;;9885459;29;20047;-81
2023/08/09 16:18:56;;;;;;;3.65;2.28;;;;;;;;;;10039176;29;20074;-85
2023/08/09 16:23:57;;;;;;;3.28;2.28;;;;;;;;;;10017935;24;20068;-86
2023/08/09 16:28:58;;;;;;;6.28;2.90;;;;;;;;;;9986440;29;20203;-86
2023/08/09 16:50:29;;;;;;;4.43;2.60;;;;;;;;;;11698837;24;20034;-89
2023/08/09 16:55:33;;;;;;;5.55;3.00;;;;;;;;;;10033323;29;20102;-89
2023/08/09 17:00:35;;;;;;;4.40;3.15;;;;;;;;;;10033353;29;20634;-85
2023/08/09 17:06:00;;;;;;;11.82;8.02;;;;;;;;;;10003878;29;20046;-89
2023/08/09 17:49:17;;;;;;;6.43;3.58;;;;;;;;;;10047014;29;20575;-87
2023/08/09 17:54:30;;;;;;;4.53;3.55;;;;;;;;;;10029703;29;20726;-87
2023/08/09 17:59:40;;;;;;;10.75;5.80;;;;;;;;;;10030338;29;20045;-86
2023/08/09 18:04:42;;;;;;;12.40;7.60;;;;;;;;;;10032597;29;20533;-89
2023/08/09 18:09:43;;;;;;;13.32;6.68;;;;;;;;;;10031524;29;20190;-87
2023/08/09 18:14:44;;;;;;;10.85;6.35;;;;;;;;;;10029825;29;20045;-86
2023/08/09 18:19:45;;;;;;;9.52;6.65;;;;;;;;;;10033948;29;20101;-86
2023/08/09 18:24:46;;;;;;;17.08;7.80;;;;;;;;;;10011905;29;20042;-87
2023/08/09 18:30:10;;;;;;;14.13;8.18;;;;;;;;;;10002172;29;20042;-86
2023/08/09 18:35:11;;;;;;;13.38;7.22;;;;;;;;;;10006989;29;20062;-85
2023/08/09 18:40:14;;;;;;;17.58;8.20;;;;;;;;;;9998046;29;20124;-87
2023/08/09 18:45:16;;;;;;;11.27;6.85;;;;;;;;;;9971265;29;20073;-86
2023/08/09 18:50:17;;;;;;;11.32;7.10;;;;;;;;;;9994699;29;20034;-85
2023/08/09 18:55:18;;;;;;;13.23;7.78;;;;;;;;;;10011198;29;20128;-85
2023/08/09 19:00:20;;;;;;;12.88;7.90;;;;;;;;;;9987083;29;20138;-85
2023/08/09 19:05:21;;;;;;;11.77;7.03;;;;;;;;;;10010149;29;20045;-87
2023/08/09 19:10:22;;;;;;;12.20;7.13;;;;;;;;;;9992393;29;20045;-86
2023/08/09 19:26:48;;;;;;;14.38;7.57;;;;;;;;;;10007846;29;20105;-86
2023/08/09 19:31:49;;;;;;;11.85;6.28;;;;;;;;;;10019584;29;20133;-85
2023/08/09 19:48:34;;;;;;;9.52;5.30;;;;;;;;;;10676477;24;20088;-85
2023/08/09 19:54:11;;;;;;;10.05;5.50;;;;;;;;;;9973459;29;20061;-87
2023/08/09 20:04:23;;;;;;;8.30;5.57;;;;;;;;;;12005585;24;19923;-86
2023/08/09 20:09:25;;;;;;;10.55;5.65;;;;;;;;;;9940253;29;20047;-85
2023/08/09 20:54:48;;;;;;;15.93;7.22;;;;;;;;;;10920677;24;20061;-85
2023/08/09 21:10:39;;;;;;;14.80;6.75;;;;;;;;;;11986038;24;20030;-85
2023/08/09 21:15:46;;;;;;;13.23;6.63;;;;;;;;;;10008901;29;20046;-86
2023/08/09 21:26:40;;;;;;;13.52;6.88;;;;;;;;;;9997206;29;20046;-86
2023/08/09 21:37:23;;;;;;;12.40;7.47;;;;;;;;;;10002147;29;20494;-86
2023/08/09 21:48:05;;;;;;;13.63;7.22;;;;;;;;;;10689365;24;20523;-85
2023/08/09 21:53:06;;;;;;;22.15;9.75;;;;;;;;;;10009159;29;20088;-85
2023/08/09 21:58:07;;;;;;;22.60;10.20;;;;;;;;;;10009163;29;20046;-85
2023/08/09 22:13:47;;;;;;;47.50;16.17;;;;;;;;;;10283012;24;20085;-86
2023/08/09 22:51:19;;;;;;;65.82;14.68;;;;;;;;;;10949974;24;20091;-86
2023/08/09 22:56:21;;;;;;;122.25;15.82;;;;;;;;;;10002876;29;20077;-87
2023/08/09 23:01:22;;;;;;;48.35;11.23;;;;;;;;;;9991358;29;20049;-86
2023/08/09 23:06:23;;;;;;;84.05;15.35;;;;;;;;;;10000998;29;20138;-87
2023/08/09 23:11:25;;;;;;;90.70;15.32;;;;;;;;;;9984986;29;20142;-86
2023/08/09 23:16:27;;;;;;;80.50;14.50;;;;;;;;;;10002087;29;20402;-86
2023/08/09 23:21:28;;;;;;;48.22;11.13;;;;;;;;;;10001099;29;20144;-86
2023/08/09 23:26:29;;;;;;;65.25;11.95;;;;;;;;;;9948370;29;20046;-85
2023/08/09 23:31:30;;;;;;;61.20;12.35;;;;;;;;;;9943818;29;20076;-88
2023/08/09 23:36:32;;;;;;;59.15;12.65;;;;;;;;;;9964360;29;20080;-87
2023/08/09 23:41:33;;;;;;;51.97;11.98;;;;;;;;;;9949903;29;20056;-87
2023/08/09 23:46:34;;;;;;;55.30;11.13;;;;;;;;;;9965476;29;20507;-87
2023/08/09 23:51:35;;;;;;;74.88;14.15;;;;;;;;;;9958799;29;20050;-87
2023/08/09 23:56:36;;;;;;;49.13;11.07;;;;;;;;;;9967765;29;20038;-87
